createdAt,value
2019-02-27T07:35:25.470Z,42.13
2019-02-27T07:37:54.899Z,43.17
2019-02-27T07:40:25.551Z,38.00
2019-02-27T07:42:55.808Z,37.73
2019-02-27T07:45:26.596Z,37.37
2019-02-27T07:47:57.181Z,33.73
2019-02-27T07:50:28.079Z,35.70
2019-02-27T07:52:57.614Z,35.43
2019-02-27T07:55:28.564Z,33.47
2019-02-27T07:57:59.249Z,35.93
2019-02-27T08:00:29.599Z,37.10
2019-02-27T08:03:01.182Z,32.43
2019-02-27T08:05:31.058Z,33.67
2019-02-27T08:08:01.007Z,35.60
2019-02-27T08:10:30.974Z,37.00
2019-02-27T08:13:00.934Z,33.23
2019-02-27T08:15:32.645Z,32.80
2019-02-27T08:18:03.819Z,35.53
2019-02-27T08:20:34.306Z,35.57
2019-02-27T08:23:04.823Z,36.27
2019-02-27T08:25:35.477Z,43.37
2019-02-27T08:28:06.813Z,37.67
2019-02-27T08:30:37.029Z,40.87
2019-02-27T08:33:08.410Z,35.37
2019-02-27T08:35:38.172Z,39.60
2019-02-27T08:38:07.992Z,33.70
2019-02-27T08:40:37.837Z,37.90
2019-02-27T08:43:10.253Z,35.23
2019-02-27T08:45:40.647Z,37.87
2019-02-27T08:48:11.248Z,40.97
2019-02-27T08:50:40.704Z,40.27
2019-02-27T08:53:10.544Z,40.87
2019-02-27T08:55:40.803Z,39.30
2019-02-27T08:58:10.965Z,37.23
2019-02-27T09:00:41.083Z,46.53
2019-02-27T09:03:19.785Z,45.13
2019-02-27T09:05:41.866Z,42.53
2019-02-27T09:08:11.768Z,41.53
2019-02-27T09:10:42.002Z,42.73
2019-02-27T09:13:11.920Z,46.67
2019-02-27T09:15:42.238Z,45.60
2019-02-27T09:18:11.597Z,41.53
2019-02-27T09:20:41.915Z,42.63
2019-02-27T09:23:11.979Z,45.63
2019-02-27T09:25:42.366Z,45.57
2019-02-27T09:28:13.847Z,49.23
2019-02-27T09:30:44.066Z,51.67
2019-02-27T09:33:13.987Z,50.40
2019-02-27T09:35:43.706Z,53.43
2019-02-27T09:38:13.824Z,49.83
2019-02-27T09:40:43.970Z,50.17
2019-02-27T09:43:13.803Z,45.40
2019-02-27T09:45:46.139Z,50.67
2019-02-27T09:48:15.042Z,50.40
2019-02-27T09:50:49.175Z,48.43
2019-02-27T09:53:18.931Z,50.77
2019-02-27T09:55:53.303Z,57.23
2019-02-27T09:58:22.584Z,46.60
2019-02-27T10:00:59.321Z,49.47
2019-02-27T10:03:28.024Z,52.27
2019-02-27T10:05:58.032Z,51.30
2019-02-27T10:08:29.145Z,42.73
2019-02-27T10:11:00.044Z,45.17
2019-02-27T10:13:30.462Z,41.03
2019-02-27T10:16:01.480Z,39.77
2019-02-27T10:18:32.200Z,42.47
2019-02-27T10:21:01.937Z,37.67
2019-02-27T10:23:31.710Z,47.00
2019-02-27T10:26:01.778Z,43.00
2019-02-27T10:28:31.896Z,42.67
2019-02-27T10:31:02.258Z,41.33
2019-02-27T10:33:33.830Z,46.20
2019-02-27T10:36:04.383Z,43.53
2019-02-27T10:38:40.071Z,39.33
2019-02-27T10:41:05.771Z,40.67
2019-02-27T10:43:37.609Z,36.80
2019-02-27T10:46:08.150Z,42.03
2019-02-27T10:48:37.732Z,36.63
2019-02-27T10:51:09.466Z,42.37
2019-02-27T10:53:39.870Z,40.87
2019-02-27T10:56:09.554Z,43.67
2019-02-27T10:58:40.732Z,46.20
2019-02-27T11:01:10.847Z,50.13
2019-02-27T11:03:41.224Z,42.17
2019-02-27T11:06:10.893Z,40.00
2019-02-27T11:08:40.797Z,41.10
2019-02-27T11:11:13.171Z,45.00
2019-02-27T11:13:43.282Z,44.03
2019-02-27T11:16:12.908Z,41.13
2019-02-27T11:18:44.039Z,45.23
2019-02-27T11:21:15.758Z,46.83
2019-02-27T11:23:45.987Z,42.83
2019-02-27T11:26:16.222Z,46.97
2019-02-27T11:28:47.702Z,44.10
2019-02-27T11:31:18.181Z,45.60
2019-02-27T11:33:47.974Z,53.33
2019-02-27T11:36:18.157Z,45.90
2019-02-27T11:38:47.835Z,54.13
2019-02-27T11:41:18.231Z,54.83
2019-02-27T11:43:47.628Z,53.40
2019-02-27T11:46:17.995Z,54.00
2019-02-27T11:48:48.079Z,54.67
2019-02-27T11:51:20.202Z,65.70
2019-02-27T11:53:49.560Z,65.93
2019-02-27T11:56:21.605Z,54.83
2019-02-27T11:58:52.593Z,55.83
2019-02-27T12:01:24.458Z,65.13
2019-02-27T12:03:54.547Z,51.97
2019-02-27T12:06:24.845Z,52.03
2019-02-27T12:08:59.543Z,52.23
2019-02-27T12:11:27.028Z,55.50
2019-02-27T12:13:56.848Z,58.53
2019-02-27T12:16:27.763Z,54.23
2019-02-27T12:18:57.901Z,59.40
2019-02-27T12:21:28.307Z,56.97
2019-02-27T12:23:58.052Z,64.57
2019-02-27T12:26:27.975Z,61.87
2019-02-27T12:29:00.102Z,57.07
2019-02-27T12:31:29.990Z,54.83
2019-02-27T12:34:02.471Z,56.33
2019-02-27T12:36:31.823Z,60.73
2019-02-27T12:39:02.469Z,63.03
2019-02-27T12:41:34.485Z,60.70
2019-02-27T12:44:04.118Z,66.27
2019-02-27T12:46:34.179Z,60.40
2019-02-27T12:49:05.001Z,57.13
2019-02-27T12:51:38.011Z,59.63
2019-02-27T12:54:07.356Z,64.80
2019-02-27T12:56:41.540Z,71.07
2019-02-27T12:59:10.084Z,59.87
2019-02-27T13:01:41.005Z,59.27
2019-02-27T13:04:15.951Z,58.00
2019-02-27T13:06:42.814Z,57.23
2019-02-27T13:09:13.252Z,53.67
2019-02-27T13:11:44.832Z,60.60
2019-02-27T13:14:13.629Z,53.73
2019-02-27T13:16:46.385Z,61.47
2019-02-27T13:19:15.315Z,63.73
2019-02-27T13:21:45.776Z,53.60
2019-02-27T13:24:16.478Z,57.33
2019-02-27T13:26:46.513Z,57.03
2019-02-27T13:29:16.852Z,64.90
2019-02-27T13:31:48.448Z,62.93
2019-02-27T13:34:19.232Z,62.17
2019-02-27T13:36:48.744Z,72.40
2019-02-27T13:39:19.309Z,65.73
2019-02-27T13:41:48.621Z,64.33
2019-02-27T13:44:18.836Z,69.67
2019-02-27T13:46:49.155Z,76.03
2019-02-27T13:49:20.040Z,62.23
2019-02-27T13:51:51.180Z,67.97
2019-02-27T13:54:23.595Z,71.53
2019-02-27T13:56:53.764Z,76.00
2019-02-27T13:59:24.205Z,76.03
2019-02-27T14:01:55.126Z,65.80
2019-02-27T14:04:24.470Z,75.80
2019-02-27T14:06:55.490Z,75.87
2019-02-27T14:09:25.905Z,81.80
2019-02-27T14:11:58.405Z,78.80
2019-02-27T14:14:27.793Z,74.27
2019-02-27T14:16:57.900Z,75.53
2019-02-27T14:19:28.327Z,76.33
2019-02-27T14:21:59.113Z,74.10
2019-02-27T14:24:30.444Z,79.67
2019-02-27T14:27:01.057Z,70.37
2019-02-27T14:29:31.036Z,77.77
2019-02-27T14:32:00.753Z,81.17
2019-02-27T14:34:31.175Z,87.53
2019-02-27T14:37:01.110Z,74.67
2019-02-27T14:39:31.523Z,72.03
2019-02-27T14:42:01.853Z,83.97
2019-02-27T14:44:32.198Z,84.43
2019-02-27T14:47:01.770Z,81.83
2019-02-27T14:49:32.172Z,78.77
2019-02-27T14:52:03.105Z,82.10
2019-02-27T14:54:35.813Z,82.70
2019-02-27T14:57:06.060Z,83.03
2019-02-27T14:59:35.961Z,80.63
2019-02-27T15:02:06.086Z,82.27
2019-02-27T15:04:35.715Z,85.83
2019-02-27T15:07:05.906Z,72.30
2019-02-27T15:09:37.112Z,85.07
2019-02-27T15:12:07.496Z,82.40
2019-02-27T15:14:38.619Z,90.00
2019-02-27T15:17:09.213Z,83.10
2019-02-27T15:19:38.789Z,82.07
2019-02-27T15:22:08.209Z,83.23
2019-02-27T15:24:37.788Z,80.60
2019-02-27T15:27:08.275Z,85.53
2019-02-27T15:29:39.567Z,85.43
2019-02-27T15:32:09.845Z,75.13
2019-02-27T15:34:39.746Z,86.70
2019-02-27T15:37:09.954Z,87.73
2019-02-27T15:39:39.913Z,80.07
2019-02-27T15:42:10.136Z,83.87
2019-02-27T15:44:40.927Z,88.13
2019-02-27T15:47:10.994Z,76.30
2019-02-27T15:49:40.944Z,84.67
2019-02-27T15:52:11.287Z,91.53
2019-02-27T15:54:42.821Z,82.07
2019-02-27T15:57:14.958Z,84.43
2019-02-27T15:59:45.454Z,84.20
2019-02-27T16:02:15.969Z,84.93
2019-02-27T16:04:47.350Z,82.63
2019-02-27T16:07:16.734Z,78.03
2019-02-27T16:09:47.309Z,76.00
2019-02-27T16:12:16.713Z,79.70
2019-02-27T16:14:46.895Z,77.07
2019-02-27T16:17:17.170Z,73.73
2019-02-27T16:19:46.821Z,77.00
2019-02-27T16:22:16.824Z,80.53
2019-02-27T16:24:46.793Z,75.57
2019-02-27T16:27:16.748Z,65.40
2019-02-27T16:29:46.781Z,76.70
2019-02-27T16:32:17.451Z,72.53
2019-02-27T16:34:47.203Z,73.27
2019-02-27T16:37:21.943Z,74.40
2019-02-27T16:39:49.909Z,71.37
2019-02-27T16:42:20.053Z,65.60
2019-02-27T16:44:51.051Z,75.17
2019-02-27T16:47:23.747Z,64.60
2019-02-27T16:49:54.308Z,67.40
2019-02-27T16:52:23.763Z,73.03
2019-02-27T16:54:54.604Z,73.20
2019-02-27T16:57:24.747Z,70.43
2019-02-27T16:59:55.038Z,73.50
2019-02-27T17:02:24.814Z,68.13
2019-02-27T17:04:55.049Z,72.60
2019-02-27T17:07:26.121Z,65.83
2019-02-27T17:09:57.108Z,61.30
2019-02-27T17:12:27.089Z,59.07
2019-02-27T17:14:58.748Z,64.57
2019-02-27T17:17:28.846Z,55.00
2019-02-27T17:19:59.346Z,57.33
2019-02-27T17:22:30.227Z,63.90
2019-02-27T17:25:02.995Z,57.00
2019-02-27T17:27:33.000Z,68.63
2019-02-27T17:30:03.524Z,71.07
2019-02-27T17:32:34.613Z,80.93
2019-02-27T17:35:04.748Z,67.57
2019-02-27T17:37:37.334Z,71.20
2019-02-27T17:40:12.892Z,65.50
2019-02-27T17:42:43.749Z,67.80
2019-02-27T17:45:19.722Z,71.00
2019-02-27T17:47:50.005Z,70.10
2019-02-27T17:50:20.681Z,66.80
2019-02-27T17:52:50.539Z,67.43
2019-02-27T17:55:21.185Z,80.30
2019-02-27T17:57:50.972Z,72.60
2019-02-27T18:00:28.413Z,68.80
2019-02-27T18:02:58.017Z,67.03
2019-02-27T18:05:28.118Z,69.67
2019-02-27T18:07:58.229Z,72.23
2019-02-27T18:10:28.913Z,72.33
2019-02-27T18:13:01.438Z,72.43
2019-02-27T18:15:31.854Z,67.57
2019-02-27T18:18:02.383Z,75.27
2019-02-27T18:20:32.281Z,66.50
2019-02-27T18:23:04.805Z,68.63
2019-02-27T18:25:34.953Z,65.40
2019-02-27T18:28:05.671Z,67.50
2019-02-27T18:30:35.722Z,57.63
2019-02-27T18:33:05.949Z,68.27
2019-02-27T18:35:35.969Z,64.27
2019-02-27T18:38:08.518Z,61.67
2019-02-27T18:40:38.959Z,59.27
2019-02-27T18:43:09.044Z,58.07
2019-02-27T18:45:38.740Z,50.80
2019-02-27T18:48:10.071Z,56.03
2019-02-27T18:50:39.996Z,58.23
2019-02-27T18:53:13.465Z,59.47
2019-02-27T18:55:44.264Z,56.20
2019-02-27T18:58:18.028Z,55.00
2019-02-27T19:00:46.975Z,50.00
2019-02-27T19:03:17.109Z,51.33
2019-02-27T19:05:47.220Z,51.93
2019-02-27T19:08:16.875Z,52.20
2019-02-27T19:10:47.457Z,57.87
2019-02-27T19:13:18.820Z,50.53
2019-02-27T19:15:48.715Z,53.27
2019-02-27T19:18:19.009Z,52.03
2019-02-27T19:20:49.120Z,61.87
2019-02-27T19:23:19.227Z,56.77
2019-02-27T19:25:48.701Z,60.80
2019-02-27T19:28:18.853Z,53.80
2019-02-27T19:30:49.124Z,53.27
2019-02-27T19:33:20.779Z,52.67
2019-02-27T19:35:55.972Z,53.90
2019-02-27T19:38:22.653Z,55.67
2019-02-27T19:40:53.043Z,59.10
2019-02-27T19:43:23.223Z,57.50
2019-02-27T19:45:52.752Z,59.80
2019-02-27T19:48:23.133Z,59.87
2019-02-27T19:50:53.132Z,55.70
2019-02-27T19:53:22.993Z,49.33
2019-02-27T19:55:53.281Z,59.03
2019-02-27T19:58:22.948Z,52.33
2019-02-27T20:00:53.102Z,56.30
2019-02-27T20:03:24.979Z,64.93
2019-02-27T20:05:56.077Z,56.27
2019-02-27T20:08:26.444Z,54.60
2019-02-27T20:10:56.883Z,56.17
2019-02-27T20:13:28.213Z,53.87
2019-02-27T20:15:58.796Z,56.17
2019-02-27T20:18:28.596Z,55.80
2019-02-27T20:20:59.092Z,51.67
2019-02-27T20:23:29.536Z,51.53
2019-02-27T20:26:00.955Z,53.50
2019-02-27T20:28:31.829Z,48.10
2019-02-27T20:31:03.094Z,49.90
2019-02-27T20:33:34.202Z,50.33
2019-02-27T20:36:04.789Z,43.20
2019-02-27T20:38:34.723Z,44.30
2019-02-27T20:41:06.078Z,43.93
2019-02-27T20:43:35.591Z,50.53
2019-02-27T20:46:06.260Z,41.30
2019-02-27T20:48:52.208Z,46.90
2019-02-27T20:51:22.880Z,47.83
2019-02-27T20:53:55.506Z,44.53
2019-02-27T20:56:24.875Z,42.53
2019-02-27T20:58:54.899Z,47.87
2019-02-27T21:01:24.789Z,41.60
2019-02-27T21:03:54.810Z,40.23
2019-02-27T21:06:24.822Z,40.90
2019-02-27T21:08:54.872Z,41.33
2019-02-27T21:11:29.541Z,34.73
2019-02-27T21:13:58.475Z,39.80
2019-02-27T21:16:28.990Z,40.67
2019-02-27T21:18:58.788Z,45.83
2019-02-27T21:21:28.987Z,42.43
2019-02-27T21:23:59.153Z,41.00
2019-02-27T21:26:29.094Z,43.43
2019-02-27T21:28:59.007Z,35.63
2019-02-27T21:31:29.283Z,39.90
2019-02-27T21:33:58.732Z,41.50
2019-02-27T21:36:29.127Z,36.50
2019-02-27T21:38:59.262Z,35.87
2019-02-27T21:41:31.248Z,36.03
2019-02-27T21:44:00.750Z,33.40
2019-02-27T21:46:30.715Z,37.20
2019-02-27T21:49:00.774Z,37.87
2019-02-27T21:51:31.017Z,39.93
2019-02-27T21:54:03.921Z,35.77
2019-02-27T21:56:35.030Z,32.53
2019-02-27T21:59:05.795Z,38.77
2019-02-27T22:01:35.178Z,42.10
2019-02-27T22:04:04.616Z,34.50
2019-02-27T22:06:35.632Z,33.97
2019-02-27T22:09:07.045Z,41.67
2019-02-27T22:11:37.471Z,36.97
2019-02-27T22:14:07.131Z,39.77
2019-02-27T22:16:37.724Z,36.20
2019-02-27T22:19:07.216Z,39.90
2019-02-27T22:21:36.531Z,35.73
2019-02-27T22:24:06.065Z,34.57
2019-02-27T22:26:38.420Z,38.67
2019-02-27T22:29:07.560Z,43.20
2019-02-27T22:31:40.208Z,38.03
2019-02-27T22:34:09.751Z,39.03
2019-02-27T22:36:39.924Z,39.60
2019-02-27T22:39:10.124Z,35.97
2019-02-27T22:41:40.625Z,37.97
2019-02-27T22:44:11.210Z,39.47
2019-02-27T22:46:40.791Z,43.20
2019-02-27T22:49:11.627Z,48.03
2019-02-27T22:51:45.229Z,34.67
2019-02-27T22:54:13.863Z,44.17
2019-02-27T22:56:50.067Z,38.10
